Portada
METAR-TAF:

METAR-TAF

Aeroports :

Berbérati, República Centreafricana

latitud: 04-15N, longitud: 015-48E, altitud: 582 m

Observació

L'informe es va fer fa 6 hores i 39 minuts, a les 10:00 UTC
Vent 12 kt del Oest
Temperatura 29°C
Humitat 62%
Pressió 1012 hPa
Visibilitat 10 km o més
sense núvols per sota de 1500 mi sense presència de cumulonimbus.

METAR: FEFT 051000Z 28012KT CAVOK 29/21 Q1012

Hora: 17:39 (16:39 UTC)


TAF: manca

Observacions i pronòstics meteorològics de més de 4000 aeroports (METAR i TAF).

Les estacions disponibles són els punts grocs i vermells al mapa.

Posi el ratolí al punt desitjat per veure el nom de l'estació.

Feu clic per veure les observacions i els pronòstics meteorològics.

Per canviar el mapa: feu clic els botons verds amb una creu de color negre per apropar; al botó verd amb un guió per allunyar la imatge; o en les fletxes verdes per a mapes adjacents.


METAR-TAF: